createdAt,value
2022-11-03T00:00:01.363Z,0.00
2022-11-03T00:10:00.151Z,0.00
2022-11-03T00:20:01.335Z,0.00
2022-11-03T00:30:00.148Z,0.00
2022-11-03T00:40:02.531Z,0.00
2022-11-03T00:50:00.981Z,0.00
2022-11-03T01:00:01.320Z,0.00
2022-11-03T01:10:01.027Z,0.00
2022-11-03T01:20:00.188Z,0.00
2022-11-03T01:30:00.158Z,0.00
2022-11-03T01:40:00.156Z,0.00
2022-11-03T01:50:01.091Z,0.00
2022-11-03T02:00:00.982Z,0.00
2022-11-03T02:10:00.197Z,0.00
2022-11-03T02:20:01.447Z,0.00
2022-11-03T02:30:00.128Z,0.00
2022-11-03T02:40:00.172Z,0.00
2022-11-03T02:50:01.251Z,0.00
2022-11-03T03:00:00.160Z,0.00
2022-11-03T03:10:00.970Z,0.00
2022-11-03T03:20:01.011Z,0.00
2022-11-03T03:30:01.010Z,0.00
2022-11-03T03:40:01.070Z,0.00
2022-11-03T03:50:01.441Z,0.00
2022-11-03T04:00:01.067Z,0.00
2022-11-03T04:10:01.044Z,0.00
2022-11-03T04:20:01.261Z,0.00
2022-11-03T04:30:01.113Z,0.00
2022-11-03T04:40:01.130Z,0.00
2022-11-03T04:50:00.118Z,0.00
2022-11-03T05:00:01.239Z,0.00
2022-11-03T05:10:00.996Z,0.00
2022-11-03T05:20:00.210Z,0.00
2022-11-03T05:30:01.389Z,0.23
2022-11-03T05:40:00.986Z,1.92
2022-11-03T05:50:00.282Z,10.64
2022-11-03T06:00:01.077Z,21.67
2022-11-03T06:10:01.001Z,53.33
2022-11-03T06:20:00.259Z,95.00
2022-11-03T06:30:01.273Z,151.67
2022-11-03T06:40:00.207Z,223.33
2022-11-03T06:50:00.817Z,316.67
2022-11-03T07:00:20.184Z,401.67
2022-11-03T07:10:00.148Z,541.67
2022-11-03T07:20:00.164Z,750.00
2022-11-03T07:30:00.133Z,846.67
2022-11-03T07:40:00.182Z,918.33
2022-11-03T07:50:01.288Z,996.67
2022-11-03T08:00:01.504Z,1005.00
2022-11-03T08:10:01.673Z,920.00
2022-11-03T08:20:01.304Z,1657.50
2022-11-03T08:30:01.306Z,888.33
2022-11-03T08:40:03.156Z,956.67
2022-11-03T08:50:01.141Z,1051.67
2022-11-03T09:00:02.534Z,1270.00
2022-11-03T09:20:00.174Z,1451.67
2022-11-03T09:40:00.169Z,1750.00
2022-11-03T09:50:00.152Z,1776.67
2022-11-03T10:00:01.426Z,4368.33
2022-11-03T10:10:00.166Z,7091.67
2022-11-03T10:20:00.187Z,14628.33
2022-11-03T10:30:01.015Z,10210.42
2022-11-03T10:40:01.290Z,9033.75
2022-11-03T10:50:01.074Z,8398.33
2022-11-03T11:00:00.166Z,2495.00
2022-11-03T11:10:01.300Z,4931.67
2022-11-03T11:20:01.410Z,2150.00
2022-11-03T11:30:01.083Z,1881.67
2022-11-03T11:40:00.161Z,3583.75
2022-11-03T11:50:01.337Z,3905.83
2022-11-03T12:00:01.342Z,1805.00
2022-11-03T12:10:03.315Z,3477.50
2022-11-03T12:30:01.039Z,3702.92
2022-11-03T12:40:01.620Z,3588.33
2022-11-03T12:50:02.457Z,3525.83
2022-11-03T13:00:01.372Z,3324.17
2022-11-03T13:10:02.288Z,4448.33
2022-11-03T13:20:00.240Z,5606.25
2022-11-03T13:30:00.158Z,5834.58
2022-11-03T13:40:00.137Z,5567.08
2022-11-03T13:50:13.915Z,4429.17
2022-11-03T14:00:03.550Z,4017.08
2022-11-03T14:10:02.628Z,3628.75
2022-11-03T14:20:04.442Z,3702.08
2022-11-03T14:30:01.099Z,2193.33
2022-11-03T14:40:01.029Z,875.00
2022-11-03T14:50:02.511Z,496.67
2022-11-03T15:00:01.601Z,761.67
2022-11-03T15:10:01.409Z,261.67
2022-11-03T15:20:00.181Z,320.00
2022-11-03T15:30:02.674Z,66.67
2022-11-03T15:40:02.253Z,21.67
2022-11-03T15:50:01.297Z,10.64
2022-11-03T16:00:00.154Z,1.47
2022-11-03T16:10:00.172Z,0.23
2022-11-03T16:20:02.175Z,1.25
2022-11-03T16:30:01.302Z,0.00
2022-11-03T16:40:01.224Z,0.00
2022-11-03T16:50:00.163Z,0.00
2022-11-03T17:00:01.053Z,0.00
2022-11-03T17:10:01.394Z,0.00
2022-11-03T17:20:01.001Z,0.00
2022-11-03T17:30:00.125Z,0.00
2022-11-03T17:40:01.047Z,0.00
2022-11-03T17:50:00.144Z,0.00
2022-11-03T18:00:01.309Z,0.00
2022-11-03T18:10:01.105Z,0.00
2022-11-03T18:30:00.993Z,0.00
2022-11-03T18:40:01.180Z,0.00
2022-11-03T18:50:02.123Z,0.00
2022-11-03T19:00:01.287Z,0.00
2022-11-03T19:10:00.148Z,0.00
2022-11-03T19:20:00.805Z,0.00
2022-11-03T19:30:01.017Z,0.00
2022-11-03T19:40:02.982Z,0.00
2022-11-03T19:50:01.430Z,0.00
2022-11-03T20:00:01.363Z,0.00
2022-11-03T20:10:00.175Z,0.00
2022-11-03T20:20:01.333Z,0.00
2022-11-03T20:30:00.182Z,0.00
2022-11-03T20:40:01.055Z,0.00
2022-11-03T20:50:01.061Z,0.00
2022-11-03T21:00:01.152Z,0.00
2022-11-03T21:10:01.193Z,0.00
2022-11-03T21:20:01.600Z,0.00
2022-11-03T21:30:01.040Z,0.00
2022-11-03T21:40:01.016Z,0.00
2022-11-03T21:50:01.259Z,0.00
2022-11-03T22:00:01.311Z,0.00
2022-11-03T22:10:01.105Z,0.00
2022-11-03T22:20:00.181Z,0.00
2022-11-03T22:30:00.168Z,0.00
2022-11-03T22:40:01.431Z,0.00
2022-11-03T22:50:00.991Z,0.00
2022-11-03T23:00:01.078Z,0.00
2022-11-03T23:10:00.158Z,0.00
2022-11-03T23:20:00.173Z,0.00
2022-11-03T23:30:00.143Z,0.00
2022-11-03T23:40:00.158Z,0.00
2022-11-03T23:50:00.148Z,0.00
